createdAt,value
2018-01-27T00:00:28.467Z,101687.14
2018-01-27T00:02:56.876Z,101689.27
2018-01-27T00:05:25.367Z,101686.98
2018-01-27T00:07:53.754Z,101685.48
2018-01-27T00:10:22.208Z,101688.59
2018-01-27T00:12:50.757Z,101692.73
2018-01-27T00:15:19.325Z,101692.14
2018-01-27T00:17:47.869Z,101688.61
2018-01-27T00:20:16.556Z,101689.88
2018-01-27T00:22:52.815Z,101693.33
2018-01-27T00:25:21.317Z,101691.42
2018-01-27T00:27:49.789Z,101701.27
2018-01-27T00:30:18.344Z,101702.11
2018-01-27T00:32:46.847Z,101707.38
2018-01-27T00:35:15.340Z,101700.81
2018-01-27T00:37:43.908Z,101702.48
2018-01-27T00:40:12.468Z,101720.09
2018-01-27T00:42:41.055Z,101724.45
2018-01-27T00:45:09.645Z,101717.19
2018-01-27T00:47:38.108Z,101710.33
2018-01-27T00:50:06.703Z,101709.25
2018-01-27T00:52:35.110Z,101715.83
2018-01-27T00:55:03.579Z,101703.72
2018-01-27T00:57:32.175Z,101711.37
2018-01-27T01:00:00.659Z,101711.97
2018-01-27T01:02:30.076Z,101719.50
2018-01-27T01:04:58.596Z,101718.56
2018-01-27T01:07:27.101Z,101726.70
2018-01-27T01:09:55.606Z,101731.04
2018-01-27T01:12:24.190Z,101743.80
2018-01-27T01:14:52.708Z,101743.89
2018-01-27T01:17:21.970Z,101744.20
2018-01-27T01:19:50.499Z,101748.65
2018-01-27T01:22:19.000Z,101750.06
2018-01-27T01:24:47.427Z,101752.61
2018-01-27T01:27:15.973Z,101752.42
2018-01-27T01:29:44.454Z,101756.97
2018-01-27T01:32:12.958Z,101762.02
2018-01-27T01:34:41.487Z,101758.48
2018-01-27T01:37:09.894Z,101759.92
2018-01-27T01:39:38.462Z,101764.95
2018-01-27T01:42:06.909Z,101771.59
2018-01-27T01:44:35.325Z,101778.00
2018-01-27T01:47:03.842Z,101780.02
2018-01-27T01:49:32.383Z,101780.50
2018-01-27T01:52:00.808Z,101781.80
2018-01-27T01:54:29.240Z,101786.75
2018-01-27T01:56:57.743Z,101785.30
2018-01-27T01:59:26.275Z,101791.94
2018-01-27T02:01:54.931Z,101798.52
2018-01-27T02:04:23.391Z,101791.86
2018-01-27T02:06:51.864Z,101799.50
2018-01-27T02:09:20.355Z,101801.24
2018-01-27T02:11:48.786Z,101801.34
2018-01-27T02:14:17.419Z,101804.86
2018-01-27T02:16:45.918Z,101807.53
2018-01-27T02:19:14.380Z,101809.59
2018-01-27T02:21:42.803Z,101813.11
2018-01-27T02:24:11.360Z,101812.37
2018-01-27T02:26:39.841Z,101819.53
2018-01-27T02:29:08.459Z,101812.79
2018-01-27T02:31:36.891Z,101810.84
2018-01-27T02:34:05.335Z,101815.56
2018-01-27T02:36:34.553Z,101818.91
2018-01-27T02:39:03.001Z,101827.52
2018-01-27T02:41:31.520Z,101823.95
2018-01-27T02:44:00.070Z,101818.50
2018-01-27T02:46:29.321Z,101820.36
2018-01-27T02:48:57.776Z,101823.23
2018-01-27T02:51:26.242Z,101821.39
2018-01-27T02:53:55.357Z,101827.86
2018-01-27T02:56:23.802Z,101824.13
2018-01-27T02:58:52.973Z,101828.37
2018-01-27T03:01:21.368Z,101829.94
2018-01-27T03:03:49.812Z,101823.97
2018-01-27T03:06:18.181Z,101827.70
2018-01-27T03:08:46.827Z,101832.09
2018-01-27T03:11:15.965Z,101833.09
2018-01-27T03:13:44.406Z,101834.55
2018-01-27T03:16:12.828Z,101833.97
2018-01-27T03:18:41.411Z,101833.01
2018-01-27T03:21:10.041Z,101835.45
2018-01-27T03:23:38.461Z,101837.63
2018-01-27T03:26:07.058Z,101841.74
2018-01-27T03:28:35.540Z,101841.35
2018-01-27T03:31:03.975Z,101847.07
2018-01-27T03:33:32.559Z,101843.47
2018-01-27T03:36:01.785Z,101841.92
2018-01-27T03:38:30.279Z,101843.34
2018-01-27T03:40:58.748Z,101846.61
2018-01-27T03:43:27.247Z,101847.64
2018-01-27T03:45:55.790Z,101858.33
2018-01-27T03:48:25.121Z,101855.52
2018-01-27T03:50:53.570Z,101868.59
2018-01-27T03:53:22.227Z,101870.02
2018-01-27T03:55:50.780Z,101871.11
2018-01-27T03:58:19.368Z,101874.80
2018-01-27T04:00:47.891Z,101878.83
2018-01-27T04:03:16.637Z,101856.55
2018-01-27T04:05:45.106Z,101883.91
2018-01-27T04:08:13.607Z,101879.86
2018-01-27T04:10:42.385Z,101885.97
2018-01-27T04:13:10.997Z,101890.86
2018-01-27T04:15:39.535Z,101895.41
2018-01-27T04:18:08.235Z,101896.84
2018-01-27T04:20:36.828Z,101897.44
2018-01-27T04:23:05.441Z,101898.97
2018-01-27T04:25:33.884Z,101895.95
2018-01-27T04:28:02.370Z,101897.77
2018-01-27T04:30:30.856Z,101904.98
2018-01-27T04:33:00.248Z,101907.01
2018-01-27T04:35:28.871Z,101911.53
2018-01-27T04:37:57.333Z,101912.51
2018-01-27T04:40:25.999Z,101909.27
2018-01-27T04:42:54.683Z,101917.00
2018-01-27T04:45:23.196Z,101925.55
2018-01-27T04:47:51.874Z,101928.84
2018-01-27T04:50:20.430Z,101935.78
2018-01-27T04:52:49.013Z,101936.85
2018-01-27T04:55:17.527Z,101939.06
2018-01-27T04:57:46.179Z,101941.33
2018-01-27T05:00:14.598Z,101937.67
2018-01-27T05:02:43.040Z,101938.52
2018-01-27T05:05:11.552Z,101950.17
2018-01-27T05:07:39.980Z,101950.19
2018-01-27T05:10:09.310Z,101946.28
2018-01-27T05:12:37.917Z,101943.93
2018-01-27T05:15:06.545Z,101954.63
2018-01-27T05:17:35.063Z,101959.09
2018-01-27T05:20:03.820Z,101955.30
2018-01-27T05:22:32.289Z,101962.22
2018-01-27T05:25:00.696Z,101970.41
2018-01-27T05:27:29.132Z,101969.21
2018-01-27T05:29:57.603Z,101971.07
2018-01-27T05:32:26.163Z,101978.22
2018-01-27T05:34:54.770Z,101988.80
2018-01-27T05:37:23.306Z,101992.60
2018-01-27T05:39:51.874Z,101995.34
2018-01-27T05:42:21.411Z,101997.23
2018-01-27T05:44:49.960Z,102000.00
2018-01-27T05:47:19.197Z,101999.16
2018-01-27T05:49:47.647Z,102009.23
2018-01-27T05:52:17.010Z,102009.56
2018-01-27T05:54:45.508Z,102005.75
2018-01-27T05:57:14.000Z,102004.59
2018-01-27T05:59:43.263Z,102007.91
2018-01-27T06:02:11.690Z,102017.55
2018-01-27T06:04:40.989Z,102018.30
2018-01-27T06:07:10.274Z,102027.06
2018-01-27T06:09:39.573Z,102034.36
2018-01-27T06:12:08.105Z,102039.28
2018-01-27T06:14:36.555Z,102039.62
2018-01-27T06:17:05.926Z,102039.23
2018-01-27T06:19:34.414Z,102030.19
2018-01-27T06:22:02.998Z,102031.62
2018-01-27T06:24:32.265Z,102031.28
2018-01-27T06:27:00.776Z,102034.80
2018-01-27T06:29:30.045Z,102036.66
2018-01-27T06:31:58.554Z,102039.45
2018-01-27T06:34:27.137Z,102055.45
2018-01-27T06:36:55.638Z,102057.88
2018-01-27T06:39:24.852Z,102063.44
2018-01-27T06:41:53.301Z,102076.02
2018-01-27T06:44:21.712Z,102072.12
2018-01-27T06:46:50.186Z,102072.80
2018-01-27T06:49:19.384Z,102075.73
2018-01-27T06:51:47.820Z,102079.33
2018-01-27T06:54:16.376Z,102077.70
2018-01-27T06:56:45.001Z,102082.20
2018-01-27T06:59:13.514Z,102091.30
2018-01-27T07:01:42.105Z,102093.66
2018-01-27T07:04:10.639Z,102095.77
2018-01-27T07:06:39.351Z,102097.59
2018-01-27T07:09:08.604Z,102096.77
2018-01-27T07:11:37.144Z,102101.69
2018-01-27T07:14:05.628Z,102104.32
2018-01-27T07:16:34.782Z,102105.58
2018-01-27T07:19:03.544Z,102107.62
2018-01-27T07:21:31.922Z,102117.10
2018-01-27T07:24:00.352Z,102124.95
2018-01-27T07:26:29.503Z,102128.66
2018-01-27T07:28:57.850Z,102127.68
2018-01-27T07:31:27.773Z,102127.20
2018-01-27T07:33:56.211Z,102127.71
2018-01-27T07:36:24.685Z,102135.91
2018-01-27T07:38:53.100Z,102132.88
2018-01-27T07:41:22.275Z,102143.46
2018-01-27T07:43:50.640Z,102139.16
2018-01-27T07:46:19.008Z,102136.81
2018-01-27T07:48:47.479Z,102137.84
2018-01-27T07:51:15.922Z,102140.94
2018-01-27T07:53:44.288Z,102148.36
2018-01-27T07:56:13.446Z,102157.38
2018-01-27T07:58:41.873Z,102159.55
2018-01-27T08:01:10.266Z,102161.58
2018-01-27T08:03:41.214Z,102162.91
2018-01-27T08:06:09.621Z,102169.73
2018-01-27T08:08:39.508Z,102168.72
2018-01-27T08:11:08.072Z,102168.73
2018-01-27T08:13:36.644Z,102170.56
2018-01-27T08:16:05.952Z,102172.73
2018-01-27T08:18:35.349Z,102165.39
2018-01-27T08:21:04.845Z,102171.66
2018-01-27T08:23:34.189Z,102172.56
2018-01-27T08:26:03.618Z,102166.19
2018-01-27T08:28:32.166Z,102162.57
2018-01-27T08:31:00.577Z,102156.80
2018-01-27T08:33:29.049Z,102166.84
2018-01-27T08:35:57.528Z,102167.58
2018-01-27T08:38:26.250Z,102165.81
2018-01-27T08:40:55.660Z,102173.40
2018-01-27T08:43:25.059Z,102165.05
2018-01-27T08:45:54.401Z,102164.36
2018-01-27T08:48:28.272Z,102153.38
2018-01-27T08:50:57.808Z,102164.18
2018-01-27T08:53:26.596Z,102167.89
2018-01-27T08:55:55.001Z,102167.09
2018-01-27T08:58:23.410Z,102168.94
2018-01-27T09:00:52.657Z,102175.13
2018-01-27T09:03:21.232Z,102175.31
2018-01-27T09:05:49.809Z,102176.47
2018-01-27T09:08:19.142Z,102180.43
2018-01-27T09:10:48.188Z,102176.69
2018-01-27T09:13:16.767Z,102175.92
2018-01-27T09:15:45.600Z,102176.76
2018-01-27T09:18:14.079Z,102166.43
2018-01-27T09:20:42.483Z,102179.75
2018-01-27T09:23:10.942Z,102175.22
2018-01-27T09:25:39.524Z,102177.56
2018-01-27T09:28:08.145Z,102183.09
2018-01-27T09:30:36.619Z,102183.45
2018-01-27T09:33:05.205Z,102184.56
2018-01-27T09:35:33.690Z,102182.89
2018-01-27T09:38:02.188Z,102183.66
2018-01-27T09:40:30.776Z,102186.86
2018-01-27T09:42:59.211Z,102184.95
2018-01-27T09:45:27.644Z,102178.66
2018-01-27T09:47:56.918Z,102175.11
2018-01-27T09:50:26.577Z,102174.02
2018-01-27T09:52:55.207Z,102191.89
2018-01-27T09:55:23.715Z,102192.57
2018-01-27T09:57:52.962Z,102199.16
2018-01-27T10:00:21.434Z,102202.13
2018-01-27T10:02:49.872Z,102203.31
2018-01-27T10:05:18.475Z,102199.14
2018-01-27T10:07:46.884Z,102212.06
2018-01-27T10:10:15.305Z,102217.19
2018-01-27T10:12:43.729Z,102221.47
2018-01-27T10:15:12.227Z,102222.22
2018-01-27T10:17:40.679Z,102225.83
2018-01-27T10:20:09.229Z,102222.61
2018-01-27T10:22:37.713Z,102223.44
2018-01-27T10:25:06.076Z,102228.48
2018-01-27T10:28:01.644Z,102226.50
2018-01-27T10:30:30.062Z,102227.23
2018-01-27T10:32:58.420Z,102231.80
2018-01-27T10:35:26.796Z,102232.27
2018-01-27T10:37:55.145Z,102240.23
2018-01-27T10:40:24.268Z,102237.91
2018-01-27T10:42:52.651Z,102236.97
2018-01-27T10:45:21.008Z,102241.95
2018-01-27T10:47:50.180Z,102227.46
2018-01-27T10:50:18.581Z,102231.28
2018-01-27T10:52:47.713Z,102222.23
2018-01-27T10:55:16.309Z,102221.03
2018-01-27T10:57:44.799Z,102223.84
2018-01-27T11:00:13.243Z,102223.17
2018-01-27T11:02:41.801Z,102224.83
2018-01-27T11:05:10.249Z,102220.98
2018-01-27T11:07:38.785Z,102221.81
2018-01-27T11:10:07.357Z,102216.52
2018-01-27T11:12:35.765Z,102216.47
2018-01-27T11:15:04.170Z,102219.68
2018-01-27T11:17:32.617Z,102221.97
2018-01-27T11:20:01.105Z,102226.50
2018-01-27T11:22:29.577Z,102224.47
2018-01-27T11:24:58.120Z,102220.25
2018-01-27T11:27:26.657Z,102229.33
2018-01-27T11:29:55.164Z,102231.51
2018-01-27T11:32:23.568Z,102223.96
2018-01-27T11:34:52.792Z,102220.88
2018-01-27T11:37:21.213Z,102220.89
2018-01-27T11:39:49.690Z,102216.55
2018-01-27T11:42:18.173Z,102220.52
2018-01-27T11:44:46.711Z,102212.08
2018-01-27T11:47:15.164Z,102206.19
2018-01-27T11:49:43.633Z,102201.05
2018-01-27T11:52:12.016Z,102209.20
2018-01-27T11:54:40.491Z,102208.25
2018-01-27T11:57:09.000Z,102199.14
2018-01-27T11:59:38.204Z,102204.00
2018-01-27T12:02:07.416Z,102199.82
2018-01-27T12:04:35.799Z,102201.14
2018-01-27T12:07:04.223Z,102199.47
2018-01-27T12:09:32.696Z,102191.58
2018-01-27T12:12:01.071Z,102185.73
2018-01-27T12:14:29.434Z,102189.52
2018-01-27T12:16:57.824Z,102189.68
2018-01-27T12:19:26.257Z,102185.73
2018-01-27T12:21:55.393Z,102182.84
2018-01-27T12:24:23.785Z,102185.67
2018-01-27T12:26:52.200Z,102183.66
2018-01-27T12:29:21.403Z,102180.66
2018-01-27T12:31:50.651Z,102170.50
2018-01-27T12:34:19.028Z,102175.08
2018-01-27T12:36:47.729Z,102174.55
2018-01-27T12:39:16.271Z,102161.55
2018-01-27T12:41:44.775Z,102163.05
2018-01-27T12:44:13.312Z,102165.03
2018-01-27T12:46:42.469Z,102161.25
2018-01-27T12:49:10.917Z,102156.77
2018-01-27T12:51:39.354Z,102156.48
2018-01-27T12:54:07.897Z,102157.77
2018-01-27T12:56:36.612Z,102156.18
2018-01-27T12:59:05.025Z,102157.70
2018-01-27T13:01:33.545Z,102160.22
2018-01-27T13:04:02.026Z,102151.92
2018-01-27T13:06:30.530Z,102162.00
2018-01-27T13:08:59.560Z,102165.08
2018-01-27T13:11:29.258Z,102166.86
2018-01-27T13:13:57.800Z,102162.44
2018-01-27T13:16:26.264Z,102157.50
2018-01-27T13:18:54.864Z,102155.90
2018-01-27T13:21:23.359Z,102158.52
2018-01-27T13:23:51.823Z,102173.49
2018-01-27T13:26:20.396Z,102177.58
2018-01-27T13:28:48.838Z,102179.08
2018-01-27T13:31:17.265Z,102174.41
2018-01-27T13:33:45.746Z,102176.75
2018-01-27T13:36:14.182Z,102178.70
2018-01-27T13:38:43.544Z,102173.63
2018-01-27T13:41:12.745Z,102169.59
2018-01-27T13:43:41.258Z,102176.64
2018-01-27T13:46:10.531Z,102172.78
2018-01-27T13:48:38.999Z,102160.38
2018-01-27T13:51:07.462Z,102157.64
2018-01-27T13:53:35.948Z,102154.42
2018-01-27T13:56:05.045Z,102148.42
2018-01-27T13:58:33.460Z,102151.48
2018-01-27T14:01:02.018Z,102151.01
2018-01-27T14:03:30.454Z,102144.27
2018-01-27T14:05:59.752Z,102144.25
2018-01-27T14:08:28.916Z,102164.68
2018-01-27T14:10:57.439Z,102161.12
2018-01-27T14:13:25.972Z,102154.03
2018-01-27T14:15:54.510Z,102148.17
2018-01-27T14:18:22.948Z,102147.63
2018-01-27T14:20:51.441Z,102159.63
2018-01-27T14:23:19.859Z,102160.53
2018-01-27T14:25:48.355Z,102160.72
2018-01-27T14:28:16.772Z,102158.14
2018-01-27T14:30:45.271Z,102166.45
2018-01-27T14:33:14.506Z,102165.03
2018-01-27T14:35:42.937Z,102165.92
2018-01-27T14:38:11.348Z,102162.59
2018-01-27T14:40:40.512Z,102160.81
2018-01-27T14:43:08.955Z,102159.69
2018-01-27T14:45:37.427Z,102160.35
2018-01-27T14:48:06.096Z,102158.89
2018-01-27T14:50:34.469Z,102154.27
2018-01-27T14:53:03.663Z,102152.58
2018-01-27T14:55:32.966Z,102151.59
2018-01-27T14:58:01.402Z,102145.75
2018-01-27T15:00:30.140Z,102149.05
2018-01-27T15:02:58.681Z,102144.64
2018-01-27T15:05:27.245Z,102148.66
2018-01-27T15:07:55.754Z,102149.27
2018-01-27T15:10:24.294Z,102155.06
2018-01-27T15:12:52.859Z,102156.13
2018-01-27T15:15:21.438Z,102161.27
2018-01-27T15:17:49.931Z,102163.17
2018-01-27T15:20:18.391Z,102168.44
2018-01-27T15:22:48.608Z,102168.69
2018-01-27T15:25:17.891Z,102174.62
2018-01-27T15:27:47.118Z,102172.97
2018-01-27T15:30:15.633Z,102180.83
2018-01-27T15:32:44.085Z,102175.73
2018-01-27T15:35:13.309Z,102169.73
2018-01-27T15:37:41.729Z,102167.82
2018-01-27T15:40:10.165Z,102163.80
2018-01-27T15:42:38.577Z,102162.92
2018-01-27T15:45:07.212Z,102154.77
2018-01-27T15:47:35.621Z,102164.65
2018-01-27T15:50:04.154Z,102158.26
2018-01-27T15:52:32.668Z,102156.05
2018-01-27T15:55:01.131Z,102153.30
2018-01-27T15:57:29.516Z,102150.75
2018-01-27T15:59:57.968Z,102143.41
2018-01-27T16:02:27.101Z,102148.03
2018-01-27T16:04:55.585Z,102150.89
2018-01-27T16:07:24.071Z,102143.03
2018-01-27T16:09:52.747Z,102152.61
2018-01-27T16:12:21.196Z,102157.55
2018-01-27T16:14:50.350Z,102152.64
2018-01-27T16:17:19.076Z,102145.83
2018-01-27T16:19:48.209Z,102144.67
2018-01-27T16:22:16.576Z,102138.01
2018-01-27T16:24:45.054Z,102138.01
2018-01-27T16:27:13.538Z,102141.55
2018-01-27T16:29:41.995Z,102137.49
2018-01-27T16:32:11.203Z,102131.75
2018-01-27T16:34:39.674Z,102131.50
2018-01-27T16:37:08.938Z,102122.23
2018-01-27T16:39:37.336Z,102123.78
2018-01-27T16:42:05.857Z,102119.02
2018-01-27T16:44:34.286Z,102113.09
2018-01-27T16:47:02.676Z,102113.52
2018-01-27T16:49:31.166Z,102112.80
2018-01-27T16:51:59.621Z,102115.05
2018-01-27T16:54:28.126Z,102114.55
2018-01-27T16:56:56.576Z,102123.16
2018-01-27T16:59:24.969Z,102118.37
2018-01-27T17:01:53.541Z,102112.55
2018-01-27T17:04:21.985Z,102114.95
2018-01-27T17:06:50.458Z,102109.41
2018-01-27T17:09:19.664Z,102100.59
2018-01-27T17:11:48.081Z,102103.11
2018-01-27T17:14:16.532Z,102103.20
2018-01-27T17:16:44.942Z,102107.72
2018-01-27T17:19:13.346Z,102099.23
2018-01-27T17:21:41.751Z,102096.84
2018-01-27T17:24:10.224Z,102095.27
2018-01-27T17:26:39.363Z,102099.06
2018-01-27T17:29:07.753Z,102103.23
2018-01-27T17:31:36.187Z,102108.78
2018-01-27T17:34:05.395Z,102104.84
2018-01-27T17:36:33.861Z,102109.78
2018-01-27T17:39:03.072Z,102102.87
2018-01-27T17:41:31.450Z,102091.61
2018-01-27T17:43:59.837Z,102095.71
2018-01-27T17:46:28.275Z,102103.66
2018-01-27T17:48:56.748Z,102082.06
2018-01-27T17:51:25.193Z,102089.39
2018-01-27T17:53:53.581Z,102090.06
2018-01-27T17:56:21.968Z,102099.91
2018-01-27T17:58:50.409Z,102099.73
2018-01-27T18:01:18.866Z,102092.25
2018-01-27T18:03:47.249Z,102078.69
2018-01-27T18:06:15.858Z,102066.56
2018-01-27T18:08:44.312Z,102057.80
2018-01-27T18:11:13.523Z,102044.47
2018-01-27T18:13:42.719Z,102042.20
2018-01-27T18:16:11.916Z,102039.34
2018-01-27T18:18:41.083Z,102038.05
2018-01-27T18:21:09.515Z,102040.33
2018-01-27T18:23:37.973Z,102035.59
2018-01-27T18:26:07.216Z,102042.33
2018-01-27T18:28:35.617Z,102031.70
2018-01-27T18:31:03.981Z,102008.91
2018-01-27T18:33:32.416Z,101999.15
2018-01-27T18:36:00.814Z,101998.31
2018-01-27T18:38:29.283Z,101992.23
2018-01-27T18:40:57.669Z,101981.48
2018-01-27T18:43:26.053Z,101980.91
2018-01-27T18:45:54.516Z,101986.70
2018-01-27T18:48:22.959Z,101979.20
2018-01-27T18:50:51.441Z,101978.87
2018-01-27T18:53:19.857Z,101979.48
2018-01-27T18:55:48.298Z,101979.54
2018-01-27T18:58:16.664Z,101974.66
2018-01-27T19:00:45.059Z,101981.82
2018-01-27T19:03:13.428Z,101992.84
2018-01-27T19:05:41.896Z,101995.89
2018-01-27T19:08:10.349Z,101985.88
2018-01-27T19:10:38.846Z,101983.09
2018-01-27T19:13:07.309Z,101976.95
2018-01-27T19:15:35.791Z,101966.84
2018-01-27T19:18:04.412Z,101964.75
